Time;durP1;ratioP1;P1;durP2;ratioP2;P2;SDS_P1;SDS_P2;PMS_P1;PMS_P2;Temp;Humidity;BMP_temperature;BMP_pressure;BME280_temperature;BME280_humidity;BME280_pressure;Samples;Min_cycle;Max_cycle;Signal;HPM_P1;HPM_P2
2022/10/16 00:00:28;;;;;;;6.10;1.98;;;;;;;;;;4391011;32;20058;-74
2022/10/16 00:03:06;;;;;;;5.25;1.98;;;;;;;;;;4329030;33;20050;-74
2022/10/16 00:05:32;;;;;;;7.68;2.40;;;;;;;;;;4375487;32;20062;-73
2022/10/16 00:08:03;;;;;;;12.80;2.72;;;;;;;;;;4376688;32;20046;-74
2022/10/16 00:10:44;;;;;;;5.22;2.42;;;;;;;;;;4376437;32;20402;-74
2022/10/16 00:13:12;;;;;;;8.27;2.40;;;;;;;;;;4377793;32;20014;-75
2022/10/16 00:15:42;;;;;;;13.38;2.53;;;;;;;;;;4375812;32;20034;-74
2022/10/16 00:18:08;;;;;;;7.40;2.20;;;;;;;;;;4361684;32;20019;-74
2022/10/16 00:20:44;;;;;;;10.60;2.35;;;;;;;;;;4375759;32;20363;-74
2022/10/16 00:23:10;;;;;;;5.85;2.12;;;;;;;;;;4375891;32;20019;-74
2022/10/16 00:25:42;;;;;;;7.00;2.20;;;;;;;;;;4387425;32;20050;-74
2022/10/16 00:28:07;;;;;;;4.75;1.80;;;;;;;;;;4390118;32;20046;-74
2022/10/16 00:30:47;;;;;;;6.50;2.20;;;;;;;;;;4389425;32;20039;-74
2022/10/16 00:33:12;;;;;;;4.65;1.80;;;;;;;;;;4390905;32;20056;-74
2022/10/16 00:35:40;;;;;;;5.82;2.30;;;;;;;;;;4389409;32;20030;-73
2022/10/16 00:38:08;;;;;;;3.58;1.70;;;;;;;;;;4390190;32;20019;-73
2022/10/16 00:40:42;;;;;;;4.43;2.37;;;;;;;;;;4390087;32;20023;-74
2022/10/16 00:43:38;;;;;;;4.72;2.53;;;;;;;;;;4390443;32;20023;-74
2022/10/16 00:46:23;;;;;;;3.87;1.90;;;;;;;;;;4389123;32;20034;-73
2022/10/16 00:48:53;;;;;;;4.50;2.35;;;;;;;;;;4376916;32;20080;-74
2022/10/16 00:51:21;;;;;;;5.50;2.45;;;;;;;;;;4390984;32;20044;-73
2022/10/16 00:53:50;;;;;;;6.20;2.90;;;;;;;;;;4389863;32;20139;-74
2022/10/16 00:56:15;;;;;;;7.32;3.40;;;;;;;;;;4384295;32;20062;-73
2022/10/16 00:58:41;;;;;;;5.75;2.10;;;;;;;;;;4377691;32;20115;-74
2022/10/16 01:01:06;;;;;;;;;;;;;;;;;;4390185;32;20030;-74
2022/10/16 01:03:35;;;;;;;5.03;2.72;;;;;;;;;;4390324;32;19975;-73
2022/10/16 01:06:19;;;;;;;6.18;2.47;;;;;;;;;;4390012;32;20199;-73
2022/10/16 01:08:55;;;;;;;9.57;2.80;;;;;;;;;;4373940;32;20074;-74
2022/10/16 01:11:43;;;;;;;7.82;3.00;;;;;;;;;;4376050;32;20023;-74
2022/10/16 01:14:25;;;;;;;7.00;2.83;;;;;;;;;;4373800;32;20031;-74
2022/10/16 01:17:01;;;;;;;6.50;2.20;;;;;;;;;;4375921;32;20023;-74
2022/10/16 01:19:35;;;;;;;4.20;2.78;;;;;;;;;;4375613;32;20019;-74
2022/10/16 01:22:01;;;;;;;20.12;3.87;;;;;;;;;;4375470;32;20076;-74
2022/10/16 01:24:39;;;;;;;6.40;3.00;;;;;;;;;;4380690;32;20015;-74
2022/10/16 01:27:28;;;;;;;7.82;2.15;;;;;;;;;;4383674;32;20058;-74
2022/10/16 01:29:58;;;;;;;4.12;2.37;;;;;;;;;;4373209;32;20051;-74
2022/10/16 01:32:42;;;;;;;4.00;2.30;;;;;;;;;;4393235;32;20079;-74
2022/10/16 01:35:26;;;;;;;4.40;2.70;;;;;;;;;;4393778;32;20057;-74
2022/10/16 01:38:30;;;;;;;5.95;2.60;;;;;;;;;;4392977;32;20019;-74
2022/10/16 01:41:06;;;;;;;4.35;2.42;;;;;;;;;;4331246;33;20133;-74
2022/10/16 01:43:54;;;;;;;6.40;2.35;;;;;;;;;;4331597;33;20027;-74
2022/10/16 01:56:28;;;;;;;;;;;;;;;;;;;;;
2022/10/16 01:59:19;;;;;;;6.95;3.12;;;;;;;;;;4331517;33;20020;-74
2022/10/16 02:01:55;;;;;;;5.78;3.03;;;;;;;;;;4341610;33;20031;-74
2022/10/16 02:04:29;;;;;;;7.22;3.12;;;;;;;;;;4345960;33;20508;-73
2022/10/16 02:09:40;;;;;;;6.33;2.77;;;;;;;;;;4338107;33;20422;-74
2022/10/16 02:12:15;;;;;;;6.65;3.08;;;;;;;;;;4359547;32;20026;-74
2022/10/16 02:15:13;;;;;;;5.87;3.15;;;;;;;;;;4377593;32;20036;-74
2022/10/16 02:17:46;;;;;;;5.25;4.22;;;;;;;;;;4376160;32;20062;-74
2022/10/16 02:20:12;;;;;;;6.50;3.28;;;;;;;;;;4377971;32;20085;-74
2022/10/16 02:22:37;;;;;;;;;;;;;;;;;;4387618;32;20031;-74
2022/10/16 02:25:24;;;;;;;8.38;3.17;;;;;;;;;;4391716;32;19937;-74
2022/10/16 02:27:55;;;;;;;5.95;2.92;;;;;;;;;;4384637;32;20393;-74
2022/10/16 02:33:44;;;;;;;;;;;;;;;;;;;;;
2022/10/16 02:36:12;;;;;;;5.82;2.97;;;;;;;;;;4388605;32;20038;-74
2022/10/16 02:38:38;;;;;;;5.10;2.97;;;;;;;;;;4384646;32;20500;-74
2022/10/16 02:41:39;;;;;;;7.68;2.55;;;;;;;;;;4390468;32;20061;-74
2022/10/16 02:44:05;;;;;;;5.32;2.50;;;;;;;;;;4387068;32;20114;-74
2022/10/16 02:46:30;;;;;;;;;;;;;;;;;;4391985;32;20038;-74
2022/10/16 02:48:55;;;;;;;4.90;2.62;;;;;;;;;;4391863;32;19938;-74
2022/10/16 02:51:21;;;;;;;5.45;2.65;;;;;;;;;;4392150;32;20014;-74
2022/10/16 02:53:46;;;;;;;6.43;2.33;;;;;;;;;;4391484;32;20019;-74
2022/10/16 02:56:11;;;;;;;3.70;2.45;;;;;;;;;;4377599;32;20054;-74
2022/10/16 02:58:37;;;;;;;8.95;3.33;;;;;;;;;;4376219;32;20038;-74
2022/10/16 03:01:02;;;;;;;4.32;2.58;;;;;;;;;;4376518;32;20085;-74
2022/10/16 03:03:27;;;;;;;4.12;2.75;;;;;;;;;;4376806;32;20053;-74
2022/10/16 03:05:56;;;;;;;3.85;2.35;;;;;;;;;;4390301;32;20076;-74
2022/10/16 03:08:23;;;;;;;3.83;2.58;;;;;;;;;;4391945;32;20049;-74
2022/10/16 03:10:49;;;;;;;8.43;2.75;;;;;;;;;;4377622;32;20119;-74
2022/10/16 03:13:15;;;;;;;4.87;2.53;;;;;;;;;;4392249;32;20092;-74
2022/10/16 03:15:40;;;;;;;;;;;;;;;;;;4391106;32;20490;-75
2022/10/16 03:18:05;;;;;;;6.28;2.90;;;;;;;;;;4391215;32;20020;-74
2022/10/16 03:20:31;;;;;;;7.15;2.47;;;;;;;;;;4391543;32;20019;-74
2022/10/16 03:22:56;;;;;;;7.03;2.55;;;;;;;;;;4377614;32;20459;-74
2022/10/16 03:25:21;;;;;;;5.40;2.58;;;;;;;;;;4390726;32;20048;-74
2022/10/16 03:27:47;;;;;;;3.60;2.40;;;;;;;;;;4391372;32;20018;-74
2022/10/16 03:30:12;;;;;;;;;;;;;;;;;;4391590;32;20027;-74
2022/10/16 03:32:39;;;;;;;7.68;2.85;;;;;;;;;;4391512;32;20240;-74
2022/10/16 03:35:08;;;;;;;7.22;2.42;;;;;;;;;;4390889;32;20130;-74
2022/10/16 03:37:36;;;;;;;6.53;2.00;;;;;;;;;;4390866;32;20042;-74
2022/10/16 03:40:02;;;;;;;3.35;2.17;;;;;;;;;;4377306;32;20298;-74
2022/10/16 03:42:27;;;;;;;3.17;2.10;;;;;;;;;;4391861;32;20018;-74
2022/10/16 03:44:53;;;;;;;;;;;;;;;;;;4391841;32;20071;-74
2022/10/16 03:47:39;;;;;;;;;;;;;;;;;;;;;
2022/10/16 03:50:08;;;;;;;4.87;2.28;;;;;;;;;;4376497;32;20093;-74
2022/10/16 03:52:33;;;;;;;9.25;2.45;;;;;;;;;;4375150;32;20524;-74
2022/10/16 03:55:08;;;;;;;;;;;;;;;;;;4384260;32;20030;-74
2022/10/16 03:57:33;;;;;;;4.45;2.85;;;;;;;;;;4391503;32;19931;-74
2022/10/16 03:59:58;;;;;;;;;;;;;;;;;;4391390;32;20019;-74
2022/10/16 04:02:35;;;;;;;4.60;2.35;;;;;;;;;;4391735;32;19964;-72
2022/10/16 04:05:00;;;;;;;8.20;3.05;;;;;;;;;;4391188;32;20022;-74
2022/10/16 04:07:25;;;;;;;4.80;2.53;;;;;;;;;;4390212;32;20018;-74
2022/10/16 04:10:04;;;;;;;;;;;;;;;;;;;;;
2022/10/16 04:12:29;;;;;;;4.95;2.60;;;;;;;;;;4391129;32;20377;-74
2022/10/16 04:27:08;;;;;;;4.95;2.35;;;;;;;;;;4390503;32;20041;-74
2022/10/16 04:30:12;;;;;;;;;;;;;;;;;;;;;
2022/10/16 04:33:12;;;;;;;6.65;2.58;;;;;;;;;;4386443;32;20391;-74
2022/10/16 04:38:59;;;;;;;8.05;3.95;;;;;;;;;;4285578;33;20060;-74
2022/10/16 04:50:39;;;;;;;5.97;2.67;;;;;;;;;;4300690;33;20044;-74
2022/10/16 04:56:15;;;;;;;4.20;2.53;;;;;;;;;;4309540;33;20090;-74
2022/10/16 04:58:40;;;;;;;;;;;;;;;;;;4349273;32;20028;-74
2022/10/16 05:01:05;;;;;;;10.40;3.45;;;;;;;;;;4390578;32;19964;-73
2022/10/16 05:03:31;;;;;;;5.10;2.97;;;;;;;;;;4390004;32;20125;-74
2022/10/16 05:06:03;;;;;;;5.80;2.90;;;;;;;;;;4389343;32;20061;-74
2022/10/16 05:08:29;;;;;;;5.20;2.53;;;;;;;;;;4390424;32;20022;-74
2022/10/16 05:10:58;;;;;;;5.40;2.65;;;;;;;;;;4390103;32;20529;-74
2022/10/16 05:13:26;;;;;;;9.85;3.20;;;;;;;;;;4380666;32;20031;-74
2022/10/16 05:15:51;;;;;;;7.87;2.83;;;;;;;;;;4375018;32;20058;-74
2022/10/16 05:18:19;;;;;;;;;;;;;;;;;;4375399;32;20030;-74
2022/10/16 05:21:01;;;;;;;9.63;2.92;;;;;;;;;;4375181;32;19934;-74
2022/10/16 05:26:55;;;;;;;;;;;;;;;;;;;;;
2022/10/16 05:29:20;;;;;;;6.47;2.58;;;;;;;;;;4374336;32;20061;-74
2022/10/16 05:31:45;;;;;;;;;;;;;;;;;;4374909;32;20035;-73
2022/10/16 05:34:21;;;;;;;10.23;2.80;;;;;;;;;;4375243;32;19938;-74
2022/10/16 05:40:03;;;;;;;;;;;;;;;;;;;;;
2022/10/16 05:46:24;;;;;;;;;;;;;;;;;;;;;
2022/10/16 05:49:00;;;;;;;5.30;2.55;;;;;;;;;;4263651;33;20419;-74
2022/10/16 05:51:29;;;;;;;3.87;2.60;;;;;;;;;;4313326;33;20585;-74
2022/10/16 05:54:03;;;;;;;9.05;2.80;;;;;;;;;;4327776;33;20032;-74
2022/10/16 05:56:29;;;;;;;6.75;2.45;;;;;;;;;;4350620;32;20409;-74
2022/10/16 05:58:54;;;;;;;;;;;;;;;;;;4375420;32;20042;-74
2022/10/16 06:04:18;;;;;;;6.45;2.50;;;;;;;;;;4374831;32;20050;-74
2022/10/16 06:07:00;;;;;;;4.68;2.67;;;;;;;;;;4375032;32;20401;-74
2022/10/16 06:09:28;;;;;;;7.35;2.95;;;;;;;;;;4374403;32;20058;-74
2022/10/16 06:12:04;;;;;;;7.10;2.60;;;;;;;;;;4374969;32;20504;-74
2022/10/16 06:14:35;;;;;;;5.60;2.30;;;;;;;;;;4378630;32;20038;-74
2022/10/16 06:17:14;;;;;;;11.55;3.03;;;;;;;;;;4390570;32;20122;-74
2022/10/16 06:20:02;;;;;;;;;;;;;;;;;;;;;
2022/10/16 06:22:41;;;;;;;7.55;2.45;;;;;;;;;;4391358;32;20068;-74
2022/10/16 06:25:07;;;;;;;4.68;2.40;;;;;;;;;;4392533;32;20030;-76
2022/10/16 06:30:27;;;;;;;7.45;2.05;;;;;;;;;;4366626;32;19968;-74
2022/10/16 06:33:15;;;;;;;5.50;1.85;;;;;;;;;;4391272;32;20379;-74
2022/10/16 06:35:43;;;;;;;10.38;1.95;;;;;;;;;;4392464;32;20038;-74
2022/10/16 06:38:09;;;;;;;6.43;1.60;;;;;;;;;;4392183;32;20039;-74
2022/10/16 06:40:34;;;;;;;4.78;2.33;;;;;;;;;;4378779;32;20112;-74
2022/10/16 06:42:59;;;;;;;8.50;1.60;;;;;;;;;;4392956;32;20035;-73
2022/10/16 06:45:27;;;;;;;6.87;1.73;;;;;;;;;;4386548;32;20092;-74
2022/10/16 06:47:59;;;;;;;6.43;1.87;;;;;;;;;;4380395;32;20031;-74
2022/10/16 06:50:24;;;;;;;9.48;1.65;;;;;;;;;;4380980;32;20035;-74
2022/10/16 06:52:49;;;;;;;9.27;2.15;;;;;;;;;;4382000;32;20107;-74
2022/10/16 06:55:16;;;;;;;7.37;1.95;;;;;;;;;;4383192;32;20486;-74
2022/10/16 06:57:42;;;;;;;6.45;1.95;;;;;;;;;;4383271;32;20058;-74
2022/10/16 07:00:10;;;;;;;8.75;2.53;;;;;;;;;;4384323;32;20023;-74
2022/10/16 07:02:36;;;;;;;3.20;1.92;;;;;;;;;;4386463;32;20137;-74
2022/10/16 07:05:01;;;;;;;;;;;;;;;;;;4387274;32;20065;-75
2022/10/16 07:07:26;;;;;;;4.78;2.42;;;;;;;;;;4388372;32;20287;-73
2022/10/16 07:09:51;;;;;;;;;;;;;;;;;;4376954;32;20090;-73
2022/10/16 07:12:17;;;;;;;8.70;2.65;;;;;;;;;;4381090;32;19953;-74
2022/10/16 07:14:42;;;;;;;8.38;2.53;;;;;;;;;;4382738;32;20408;-74
2022/10/16 07:17:08;;;;;;;10.43;2.50;;;;;;;;;;4389038;32;20407;-73
2022/10/16 07:19:36;;;;;;;7.95;2.65;;;;;;;;;;4381547;32;20030;-74
2022/10/16 07:22:02;;;;;;;8.00;3.05;;;;;;;;;;4380325;32;20047;-74
2022/10/16 07:24:28;;;;;;;5.37;2.25;;;;;;;;;;4363073;32;20376;-75
2022/10/16 07:26:53;;;;;;;8.35;2.30;;;;;;;;;;4376251;32;20137;-75
2022/10/16 07:29:25;;;;;;;9.98;3.00;;;;;;;;;;4376187;32;20052;-74
2022/10/16 07:31:50;;;;;;;8.98;2.45;;;;;;;;;;4387843;32;20110;-74
2022/10/16 07:34:16;;;;;;;6.55;2.28;;;;;;;;;;4391617;32;20023;-74
2022/10/16 07:36:42;;;;;;;8.43;2.80;;;;;;;;;;4391252;32;20030;-75
2022/10/16 07:39:07;;;;;;;;;;;;;;;;;;4391389;32;20026;-75
2022/10/16 07:41:36;;;;;;;8.30;2.90;;;;;;;;;;4391140;32;19942;-74
2022/10/16 07:44:12;;;;;;;;;;;;;;;;;;;;;
2022/10/16 07:46:47;;;;;;;6.03;2.58;;;;;;;;;;4391726;32;20359;-75
2022/10/16 07:49:15;;;;;;;8.23;2.80;;;;;;;;;;4391266;32;20022;-74
2022/10/16 07:52:19;;;;;;;9.43;2.80;;;;;;;;;;4391009;32;20046;-74
2022/10/16 07:54:44;;;;;;;12.90;3.55;;;;;;;;;;4391240;32;20060;-74
2022/10/16 07:57:09;;;;;;;5.35;2.22;;;;;;;;;;4390833;32;20039;-74
2022/10/16 07:59:35;;;;;;;7.45;2.50;;;;;;;;;;4390924;32;20070;-74
2022/10/16 08:02:00;;;;;;;8.30;2.35;;;;;;;;;;4391461;32;20090;-75
2022/10/16 08:04:42;;;;;;;12.23;2.67;;;;;;;;;;4391040;32;20390;-74
2022/10/16 08:07:08;;;;;;;11.82;2.40;;;;;;;;;;4391539;32;20080;-75
2022/10/16 08:09:33;;;;;;;7.65;2.33;;;;;;;;;;4390772;32;20046;-76
2022/10/16 08:11:59;;;;;;;10.23;3.00;;;;;;;;;;4391031;32;20026;-74
2022/10/16 08:14:24;;;;;;;11.32;2.92;;;;;;;;;;4377194;32;20065;-74
2022/10/16 08:16:50;;;;;;;8.18;2.25;;;;;;;;;;4391628;32;20030;-74
2022/10/16 08:19:17;;;;;;;10.57;2.58;;;;;;;;;;4390612;32;20369;-74
2022/10/16 08:22:09;;;;;;;10.35;2.75;;;;;;;;;;4390984;32;20084;-74
2022/10/16 08:24:36;;;;;;;11.48;2.62;;;;;;;;;;4390679;32;20037;-74
2022/10/16 08:33:21;;;;;;;9.60;2.25;;;;;;;;;;4300018;33;20430;-74
2022/10/16 08:35:55;;;;;;;10.77;2.42;;;;;;;;;;4299536;33;20104;-75
2022/10/16 08:44:30;;;;;;;11.27;3.10;;;;;;;;;;4285219;33;20551;-75
2022/10/16 08:47:14;;;;;;;8.10;2.30;;;;;;;;;;4364986;32;20111;-75
2022/10/16 08:49:41;;;;;;;14.13;2.97;;;;;;;;;;4390305;32;20031;-74
2022/10/16 08:52:10;;;;;;;7.93;2.42;;;;;;;;;;4389808;32;20031;-75
2022/10/16 08:54:40;;;;;;;9.90;2.78;;;;;;;;;;4383151;32;20196;-74
2022/10/16 08:57:21;;;;;;;8.32;2.33;;;;;;;;;;4383763;32;20096;-74
2022/10/16 09:09:32;;;;;;;7.25;2.60;;;;;;;;;;4328491;33;20058;-75
2022/10/16 09:12:05;;;;;;;10.55;3.40;;;;;;;;;;4334046;33;20035;-75
2022/10/16 09:14:36;;;;;;;15.95;3.37;;;;;;;;;;4343425;33;20066;-75
2022/10/16 09:17:25;;;;;;;14.05;3.72;;;;;;;;;;4373454;32;20368;-74
2022/10/16 09:20:04;;;;;;;14.45;3.78;;;;;;;;;;4390733;32;20053;-74
2022/10/16 09:22:31;;;;;;;13.35;3.50;;;;;;;;;;4388235;32;20442;-75
2022/10/16 09:25:19;;;;;;;9.20;2.62;;;;;;;;;;4383653;32;20065;-75
2022/10/16 09:28:03;;;;;;;10.68;3.03;;;;;;;;;;4389850;32;20034;-75
2022/10/16 09:30:40;;;;;;;14.18;2.65;;;;;;;;;;4390830;32;20043;-75
2022/10/16 09:33:06;;;;;;;9.10;3.05;;;;;;;;;;4389931;32;20164;-76
2022/10/16 09:35:35;;;;;;;11.35;2.92;;;;;;;;;;4373413;32;20039;-75
2022/10/16 09:38:26;;;;;;;12.93;3.28;;;;;;;;;;4376481;32;20417;-75
2022/10/16 09:40:52;;;;;;;11.55;2.78;;;;;;;;;;4386930;32;20092;-75
2022/10/16 09:43:30;;;;;;;14.93;2.97;;;;;;;;;;4377362;32;20027;-75
2022/10/16 09:46:07;;;;;;;14.55;2.62;;;;;;;;;;4373525;32;20092;-75
2022/10/16 09:48:48;;;;;;;13.40;2.50;;;;;;;;;;4375073;32;20186;-76
2022/10/16 09:51:19;;;;;;;12.90;3.35;;;;;;;;;;4375113;32;20420;-75
2022/10/16 09:54:11;;;;;;;9.55;2.53;;;;;;;;;;4379496;32;20094;-74
2022/10/16 09:56:40;;;;;;;10.73;2.80;;;;;;;;;;4384578;32;20496;-75
2022/10/16 09:59:30;;;;;;;11.07;2.83;;;;;;;;;;4377832;32;20078;-75
2022/10/16 10:02:10;;;;;;;15.23;3.22;;;;;;;;;;4377921;32;20094;-75
2022/10/16 10:04:57;;;;;;;13.07;3.28;;;;;;;;;;4392252;32;20074;-74
2022/10/16 10:10:42;;;;;;;10.68;2.70;;;;;;;;;;4348455;32;20062;-75
2022/10/16 10:16:46;;;;;;;14.52;3.17;;;;;;;;;;4392025;32;20057;-76
2022/10/16 10:22:22;;;;;;;11.07;3.05;;;;;;;;;;4392048;32;20463;-77
2022/10/16 10:25:06;;;;;;;14.15;3.22;;;;;;;;;;4378006;32;20433;-75
2022/10/16 10:28:10;;;;;;;;;;;;;;;;;;;;;
2022/10/16 10:30:56;;;;;;;25.35;3.80;;;;;;;;;;4346900;32;20104;-76
2022/10/16 10:33:25;;;;;;;12.18;2.85;;;;;;;;;;4390173;32;20081;-76
2022/10/16 10:39:13;;;;;;;12.45;2.83;;;;;;;;;;4392385;32;20061;-76
2022/10/16 10:42:17;;;;;;;;;;;;;;;;;;;;;
2022/10/16 10:45:12;;;;;;;9.88;2.70;;;;;;;;;;4391414;32;20334;-76
2022/10/16 10:47:48;;;;;;;16.20;2.67;;;;;;;;;;4392092;32;20050;-76
2022/10/16 10:50:32;;;;;;;;;;;;;;;;;;;;;
2022/10/16 10:53:32;;;;;;;11.95;3.22;;;;;;;;;;4376816;32;20284;-76
2022/10/16 10:56:29;;;;;;;10.40;2.97;;;;;;;;;;4378391;32;20052;-76
2022/10/16 10:59:17;;;;;;;10.40;2.42;;;;;;;;;;4391690;32;20035;-76
2022/10/16 11:05:19;;;;;;;8.73;2.67;;;;;;;;;;4333135;33;20418;-77
2022/10/16 11:10:54;;;;;;;12.77;2.80;;;;;;;;;;4300585;33;20051;-77
2022/10/16 11:16:50;;;;;;;11.35;2.67;;;;;;;;;;4326951;33;20095;-76
2022/10/16 11:19:31;;;;;;;15.02;3.58;;;;;;;;;;4328090;33;20051;-77
2022/10/16 11:22:04;;;;;;;8.23;2.65;;;;;;;;;;4354210;32;20049;-76
2022/10/16 11:24:31;;;;;;;14.73;2.47;;;;;;;;;;4383489;32;20049;-76
2022/10/16 11:27:02;;;;;;;13.10;3.47;;;;;;;;;;4391193;32;20038;-76
2022/10/16 11:29:30;;;;;;;12.45;3.20;;;;;;;;;;4391177;32;20297;-75
2022/10/16 11:32:11;;;;;;;13.23;2.47;;;;;;;;;;4377192;32;20115;-76
2022/10/16 11:34:48;;;;;;;7.62;2.05;;;;;;;;;;4391265;32;20174;-76
2022/10/16 11:37:32;;;;;;;12.07;2.80;;;;;;;;;;4384917;32;20074;-75
2022/10/16 11:40:03;;;;;;;10.15;3.08;;;;;;;;;;4391001;32;20450;-76
2022/10/16 11:45:35;;;;;;;10.30;3.08;;;;;;;;;;4358702;32;20030;-74
2022/10/16 11:51:35;;;;;;;16.75;3.78;;;;;;;;;;4381125;32;20440;-75
2022/10/16 12:00:20;;;;;;;12.15;3.17;;;;;;;;;;4376869;32;20046;-75
2022/10/16 12:02:49;;;;;;;11.00;2.67;;;;;;;;;;4376391;32;20104;-75
2022/10/16 12:05:29;;;;;;;13.38;3.33;;;;;;;;;;4390298;32;20031;-75
2022/10/16 12:08:02;;;;;;;10.10;2.62;;;;;;;;;;4391376;32;20447;-75
2022/10/16 12:10:37;;;;;;;10.82;2.62;;;;;;;;;;4390666;32;20372;-75
2022/10/16 12:13:22;;;;;;;8.98;2.60;;;;;;;;;;4389957;32;20060;-74
2022/10/16 12:18:45;;;;;;;11.05;2.55;;;;;;;;;;4376789;32;20052;-74
2022/10/16 12:21:15;;;;;;;11.48;2.60;;;;;;;;;;4390483;32;20413;-75
2022/10/16 12:23:59;;;;;;;12.52;2.80;;;;;;;;;;4390121;32;20434;-75
2022/10/16 12:26:26;;;;;;;14.73;3.08;;;;;;;;;;4389877;32;20096;-75
2022/10/16 12:28:54;;;;;;;7.65;2.80;;;;;;;;;;4390435;32;20035;-75
2022/10/16 12:31:19;;;;;;;9.38;2.58;;;;;;;;;;4390267;32;20428;-75
2022/10/16 12:34:09;;;;;;;11.45;2.83;;;;;;;;;;4385340;32;20034;-75
2022/10/16 12:36:35;;;;;;;13.32;3.25;;;;;;;;;;4385734;32;20039;-75
2022/10/16 12:39:09;;;;;;;11.25;3.08;;;;;;;;;;4382741;32;20081;-75
2022/10/16 12:41:46;;;;;;;13.73;3.03;;;;;;;;;;4387034;32;20019;-76
2022/10/16 12:44:33;;;;;;;11.43;2.70;;;;;;;;;;4384218;32;20072;-76
2022/10/16 12:46:58;;;;;;;14.63;3.00;;;;;;;;;;4388384;32;20455;-74
2022/10/16 12:49:47;;;;;;;;;;;;;;;;;;;;;
2022/10/16 12:52:45;;;;;;;;;;;;;;;;;;;;;
2022/10/16 12:55:16;;;;;;;14.25;3.37;;;;;;;;;;4387192;32;20026;-75
2022/10/16 12:58:01;;;;;;;10.65;2.67;;;;;;;;;;4391839;32;20046;-75
2022/10/16 13:00:48;;;;;;;9.50;2.60;;;;;;;;;;4380894;32;20100;-75
2022/10/16 13:03:42;;;;;;;8.82;2.70;;;;;;;;;;4388532;32;20046;-75
2022/10/16 13:06:29;;;;;;;14.90;2.83;;;;;;;;;;4386915;32;20548;-74
2022/10/16 13:09:13;;;;;;;8.85;2.47;;;;;;;;;;4387548;32;20026;-75
2022/10/16 13:11:57;;;;;;;12.13;3.28;;;;;;;;;;4376706;32;20417;-75
2022/10/16 13:14:46;;;;;;;12.37;3.00;;;;;;;;;;4389238;32;20042;-75
2022/10/16 13:17:17;;;;;;;13.52;2.67;;;;;;;;;;4376678;32;20050;-77
2022/10/16 13:19:49;;;;;;;12.98;2.97;;;;;;;;;;4390243;32;20095;-75
2022/10/16 13:25:49;;;;;;;12.70;2.50;;;;;;;;;;4341934;33;20040;-75
2022/10/16 13:28:18;;;;;;;17.48;4.45;;;;;;;;;;4392530;32;20030;-76
2022/10/16 13:31:24;;;;;;;16.52;3.17;;;;;;;;;;4391914;32;20089;-74
2022/10/16 13:33:58;;;;;;;11.73;2.60;;;;;;;;;;4392278;32;20437;-75
2022/10/16 13:36:34;;;;;;;11.15;2.80;;;;;;;;;;4392149;32;20478;-74
2022/10/16 13:42:09;;;;;;;11.88;2.65;;;;;;;;;;4392402;32;20482;-74
2022/10/16 13:47:37;;;;;;;10.45;2.95;;;;;;;;;;4392874;32;20045;-74
2022/10/16 13:52:59;;;;;;;;;;;;;;;;;;;;;
2022/10/16 13:55:25;;;;;;;10.10;3.28;;;;;;;;;;4380162;32;20057;-74
2022/10/16 13:57:50;;;;;;;8.27;2.35;;;;;;;;;;4391726;32;20404;-75
2022/10/16 14:00:18;;;;;;;9.80;2.70;;;;;;;;;;4390799;32;20081;-75
2022/10/16 14:03:13;;;;;;;12.60;2.78;;;;;;;;;;4391314;32;20045;-74
2022/10/16 14:09:30;;;;;;;15.75;3.33;;;;;;;;;;4316203;33;20121;-74
2022/10/16 14:12:31;;;;;;;;;;;;;;;;;;;;;
2022/10/16 14:15:20;;;;;;;13.50;2.85;;;;;;;;;;4385795;32;20037;-74
2022/10/16 14:17:47;;;;;;;15.02;2.80;;;;;;;;;;4396343;32;20058;-74
2022/10/16 14:20:21;;;;;;;11.80;2.78;;;;;;;;;;4391107;32;20047;-74
2022/10/16 14:25:43;;;;;;;13.20;3.25;;;;;;;;;;4330364;33;20043;-74
2022/10/16 14:28:40;;;;;;;;;;;;;;;;;;;;;
2022/10/16 14:34:28;;;;;;;9.02;2.45;;;;;;;;;;4330741;33;20043;-74
2022/10/16 14:36:54;;;;;;;13.00;2.62;;;;;;;;;;4369265;32;20033;-74
2022/10/16 14:42:49;;;;;;;13.13;3.33;;;;;;;;;;4397093;32;20061;-74
2022/10/16 14:45:44;;;;;;;11.75;3.33;;;;;;;;;;4377048;32;20129;-75
2022/10/16 14:48:19;;;;;;;16.50;2.83;;;;;;;;;;4391077;32;20064;-73
2022/10/16 14:50:45;;;;;;;15.10;3.87;;;;;;;;;;4391236;32;20053;-74
2022/10/16 14:53:36;;;;;;;11.95;2.95;;;;;;;;;;4390371;32;20122;-74
2022/10/16 14:56:06;;;;;;;12.15;3.72;;;;;;;;;;4385294;32;20049;-74
2022/10/16 14:58:48;;;;;;;16.35;3.42;;;;;;;;;;4378242;32;20068;-74
2022/10/16 15:01:19;;;;;;;11.95;2.78;;;;;;;;;;4378901;32;20474;-74
2022/10/16 15:06:53;;;;;;;12.40;2.90;;;;;;;;;;4373928;32;20085;-74
2022/10/16 15:09:21;;;;;;;13.80;3.12;;;;;;;;;;4379891;32;20034;-74
2022/10/16 15:11:47;;;;;;;14.57;2.92;;;;;;;;;;4391448;32;20093;-74
2022/10/16 15:14:55;;;;;;;;;;;;;;;;;;;;;
2022/10/16 15:17:52;;;;;;;17.08;3.37;;;;;;;;;;4370173;32;20046;-74
2022/10/16 15:20:36;;;;;;;12.52;2.90;;;;;;;;;;4389159;32;20046;-74
2022/10/16 15:26:19;;;;;;;18.67;3.95;;;;;;;;;;4349084;32;20333;-74
2022/10/16 15:28:44;;;;;;;11.60;2.62;;;;;;;;;;4391867;32;20080;-74
2022/10/16 15:31:13;;;;;;;22.37;4.15;;;;;;;;;;4390670;32;20466;-74
2022/10/16 15:33:38;;;;;;;15.68;3.58;;;;;;;;;;4391483;32;20053;-74
2022/10/16 15:36:37;;;;;;;15.23;3.33;;;;;;;;;;4391005;32;20405;-74
2022/10/16 15:39:11;;;;;;;14.73;3.00;;;;;;;;;;4390499;32;20048;-74
2022/10/16 15:41:37;;;;;;;14.25;3.62;;;;;;;;;;4391079;32;20030;-75
2022/10/16 15:44:02;;;;;;;17.55;3.90;;;;;;;;;;4391176;32;20022;-74
2022/10/16 15:46:28;;;;;;;13.00;2.95;;;;;;;;;;4402305;32;20026;-74
2022/10/16 15:49:01;;;;;;;18.70;3.30;;;;;;;;;;4377455;32;20077;-75
2022/10/16 15:51:32;;;;;;;21.77;5.53;;;;;;;;;;4390065;32;20072;-74
2022/10/16 15:53:58;;;;;;;20.62;5.53;;;;;;;;;;4390945;32;20424;-74
2022/10/16 15:56:33;;;;;;;19.08;5.60;;;;;;;;;;4389306;32;20042;-74
2022/10/16 15:59:27;;;;;;;21.45;5.75;;;;;;;;;;4390746;32;20030;-75
2022/10/16 16:01:53;;;;;;;18.62;5.00;;;;;;;;;;4385369;32;20034;-74
2022/10/16 16:04:33;;;;;;;;;;;;;;;;;;;;;
2022/10/16 16:07:32;;;;;;;19.85;5.50;;;;;;;;;;4391034;32;20344;-75
2022/10/16 16:10:13;;;;;;;14.10;4.35;;;;;;;;;;4391058;32;20045;-75
2022/10/16 16:12:38;;;;;;;14.98;5.35;;;;;;;;;;4383849;32;20090;-75
2022/10/16 16:15:05;;;;;;;20.48;4.95;;;;;;;;;;4390876;32;20085;-75
2022/10/16 16:17:51;;;;;;;21.10;5.55;;;;;;;;;;4390847;32;20026;-75
2022/10/16 16:20:38;;;;;;;19.93;5.00;;;;;;;;;;4391186;32;20077;-75
2022/10/16 16:23:16;;;;;;;20.12;5.68;;;;;;;;;;4391353;32;20040;-75
2022/10/16 16:25:47;;;;;;;19.15;4.53;;;;;;;;;;4376564;32;20049;-76
2022/10/16 16:31:22;;;;;;;19.42;5.18;;;;;;;;;;4366800;32;20053;-77
2022/10/16 16:33:47;;;;;;;19.08;4.75;;;;;;;;;;4391090;32;20052;-78
2022/10/16 16:36:13;;;;;;;14.63;4.53;;;;;;;;;;4390269;32;20034;-79
2022/10/16 16:39:19;;;;;;;14.50;4.70;;;;;;;;;;4390334;32;20030;-80
2022/10/16 16:41:47;;;;;;;11.68;6.00;;;;;;;;;;4388412;32;20392;-80
2022/10/16 16:44:24;;;;;;;19.50;8.45;;;;;;;;;;4390228;32;20061;-80
2022/10/16 16:49:52;;;;;;;20.40;9.18;;;;;;;;;;4390349;32;20076;-80
2022/10/16 16:53:10;;;;;;;25.90;8.77;;;;;;;;;;4374265;32;20023;-80
2022/10/16 16:55:12;;;;;;;22.27;8.90;;;;;;;;;;4382244;32;20062;-79
2022/10/16 16:57:39;;;;;;;37.25;17.02;;;;;;;;;;4390961;32;20026;-78
2022/10/16 17:06:58;;;;;;;19.73;6.40;;;;;;;;;;4299675;33;20055;-79
2022/10/16 17:13:02;;;;;;;20.55;7.53;;;;;;;;;;4269892;33;20021;-79
2022/10/16 17:15:42;;;;;;;22.95;6.32;;;;;;;;;;4270516;33;20037;-80
2022/10/16 17:21:31;;;;;;;;;;;;;;;;;;;;;
2022/10/16 17:24:25;;;;;;;;;;;;;;;;;;;;;
2022/10/16 17:27:24;;;;;;;;;;;;;;;;;;;;;
2022/10/16 17:29:57;;;;;;;23.48;6.12;;;;;;;;;;4328628;33;20007;-80
2022/10/16 17:35:29;;;;;;;25.20;5.90;;;;;;;;;;4320525;33;20084;-80
2022/10/16 17:38:03;;;;;;;19.75;6.47;;;;;;;;;;4336486;32;20455;-80
2022/10/16 17:40:34;;;;;;;22.83;6.87;;;;;;;;;;4390798;32;20053;-80
2022/10/16 17:43:14;;;;;;;18.40;5.93;;;;;;;;;;4390249;32;20402;-80
2022/10/16 17:54:58;;;;;;;;;;;;;;;;;;;;;
2022/10/16 18:12:48;;;;;;;22.02;7.87;;;;;;;;;;4270655;33;20029;-81
2022/10/16 18:21:33;;;;;;;18.27;6.22;;;;;;;;;;4301841;33;20466;-80
2022/10/16 18:24:52;;;;;;;26.33;7.55;;;;;;;;;;4312257;32;20464;-82
2022/10/16 18:33:14;;;;;;;15.98;5.95;;;;;;;;;;4315677;33;20091;-81
2022/10/16 19:18:47;;;;;;;;;;;;;;;;;;;;;
2022/10/16 19:28:06;;;;;;;;;;;;;;;;;;;;;
2022/10/16 19:37:26;;;;;;;;;;;;;;;;;;;;;
2022/10/16 19:56:00;;;;;;;;;;;;;;;;;;;;;
2022/10/16 20:12:01;;;;;;;23.60;10.23;;;;;;;;;;4215557;34;20100;-80
2022/10/16 20:21:07;;;;;;;21.50;10.95;;;;;;;;;;4242448;33;20392;-80
2022/10/16 20:26:38;;;;;;;15.98;9.90;;;;;;;;;;4300939;33;20078;-80
2022/10/16 20:29:30;;;;;;;20.80;11.30;;;;;;;;;;4356969;32;20105;-80
2022/10/16 20:35:14;;;;;;;18.83;11.00;;;;;;;;;;4329199;33;20043;-80
2022/10/16 20:41:30;;;;;;;26.10;13.32;;;;;;;;;;4286006;33;20066;-80
2022/10/16 20:59:26;;;;;;;18.20;13.13;;;;;;;;;;4329090;33;20075;-79
2022/10/16 21:05:18;;;;;;;16.55;13.75;;;;;;;;;;4355582;32;20091;-79
2022/10/16 21:13:51;;;;;;;17.42;12.45;;;;;;;;;;4329135;33;20103;-79
2022/10/16 21:22:15;;;;;;;17.98;11.60;;;;;;;;;;4314386;33;20120;-79
2022/10/16 21:24:40;;;;;;;20.60;10.25;;;;;;;;;;4346759;32;20034;-79
2022/10/16 21:27:09;;;;;;;14.48;10.18;;;;;;;;;;4376283;32;20136;-79
2022/10/16 21:30:01;;;;;;;14.87;10.20;;;;;;;;;;4390872;32;20046;-79
2022/10/16 21:32:54;;;;;;;14.98;9.20;;;;;;;;;;4314370;33;20036;-79
2022/10/16 21:35:22;;;;;;;14.65;8.88;;;;;;;;;;4314487;33;20040;-79